createdAt,value
2023-04-13T00:01:11.085Z,3.83
2023-04-13T00:06:15.327Z,3.63
2023-04-13T00:11:18.100Z,2.85
2023-04-13T00:16:21.203Z,2.60
2023-04-13T00:21:25.808Z,2.95
2023-04-13T00:26:28.832Z,3.10
2023-04-13T00:31:31.660Z,2.53
2023-04-13T00:36:35.822Z,2.40
2023-04-13T00:41:38.566Z,2.90
2023-04-13T00:46:42.588Z,2.47
2023-04-13T00:51:47.791Z,2.53
2023-04-13T00:56:54.233Z,2.10
2023-04-13T01:01:57.388Z,1.80
2023-04-13T01:07:09.216Z,4.05
2023-04-13T01:12:18.324Z,1.90
2023-04-13T01:17:25.626Z,1.38
2023-04-13T01:22:33.912Z,1.70
2023-04-13T01:27:46.891Z,1.70
2023-04-13T01:32:51.317Z,1.63
2023-04-13T01:37:54.781Z,1.35
2023-04-13T01:43:02.356Z,1.48
2023-04-13T01:48:18.247Z,1.75
2023-04-13T01:53:53.529Z,1.50
2023-04-13T01:58:59.962Z,1.60
2023-04-13T02:04:05.302Z,1.45
2023-04-13T02:09:09.141Z,1.20
2023-04-13T02:14:13.474Z,1.27
2023-04-13T02:19:17.097Z,1.05
2023-04-13T02:24:19.854Z,0.80
2023-04-13T02:29:24.051Z,1.00
2023-04-13T02:34:27.454Z,0.80
2023-04-13T02:39:30.814Z,1.25
2023-04-13T02:44:36.319Z,0.90
2023-04-13T02:49:39.263Z,0.65
2023-04-13T02:54:54.535Z,0.50
2023-04-13T03:00:02.027Z,0.90
2023-04-13T03:05:17.468Z,1.00
2023-04-13T03:10:21.809Z,1.20
2023-04-13T03:15:26.274Z,0.95
2023-04-13T03:20:29.875Z,0.90
2023-04-13T03:25:36.148Z,0.70
2023-04-13T03:30:41.608Z,0.70
2023-04-13T03:35:44.619Z,1.17
2023-04-13T03:40:56.981Z,1.00
2023-04-13T03:46:03.492Z,0.73
2023-04-13T03:51:08.070Z,0.40
2023-04-13T03:56:23.339Z,0.60
2023-04-13T04:01:28.327Z,0.77
2023-04-13T04:06:32.172Z,0.57
2023-04-13T04:11:55.293Z,0.82
2023-04-13T04:17:10.175Z,0.30
2023-04-13T04:22:14.040Z,0.70
2023-04-13T04:27:18.364Z,0.38
2023-04-13T04:32:25.332Z,0.57
2023-04-13T04:37:30.227Z,0.47
2023-04-13T04:42:38.763Z,0.55
2023-04-13T04:47:50.453Z,0.40
2023-04-13T04:52:57.136Z,0.52
2023-04-13T04:58:02.503Z,0.38
2023-04-13T05:03:08.957Z,0.40
2023-04-13T05:08:15.721Z,0.70
2023-04-13T05:13:22.894Z,0.32
2023-04-13T05:18:50.511Z,0.20
2023-04-13T05:24:08.767Z,0.50
2023-04-13T05:29:12.697Z,0.63
2023-04-13T05:34:20.227Z,0.40
2023-04-13T05:39:37.911Z,0.22
2023-04-13T05:44:41.580Z,0.60
2023-04-13T05:49:46.198Z,0.85
2023-04-13T05:54:50.561Z,1.02
2023-04-13T05:59:56.654Z,1.10
2023-04-13T06:05:18.433Z,0.50
2023-04-13T06:10:21.338Z,0.50
2023-04-13T06:15:24.819Z,0.82
2023-04-13T06:20:29.122Z,0.65
2023-04-13T06:25:32.951Z,0.20
2023-04-13T06:30:37.258Z,0.50
2023-04-13T06:35:45.913Z,0.35
2023-04-13T06:40:49.603Z,0.30
2023-04-13T06:45:59.360Z,0.50
2023-04-13T06:51:07.416Z,0.30
2023-04-13T06:56:12.075Z,0.70
2023-04-13T07:01:16.289Z,0.80
2023-04-13T07:06:22.370Z,0.68
2023-04-13T07:11:27.581Z,0.75
2023-04-13T07:16:30.661Z,1.38
2023-04-13T07:21:35.105Z,0.85
2023-04-13T07:26:40.983Z,0.90
2023-04-13T07:31:44.528Z,1.08
2023-04-13T07:36:49.277Z,1.10
2023-04-13T07:41:56.503Z,1.05
2023-04-13T07:47:14.272Z,0.77
2023-04-13T07:52:21.418Z,0.90
2023-04-13T07:57:25.661Z,1.27
2023-04-13T08:02:34.348Z,2.03
2023-04-13T08:07:39.096Z,2.05
2023-04-13T08:12:43.313Z,2.28
2023-04-13T08:17:48.894Z,3.60
2023-04-13T08:22:54.692Z,2.72
2023-04-13T08:27:57.745Z,2.00
2023-04-13T08:33:01.011Z,2.30
2023-04-13T08:38:07.058Z,2.67
2023-04-13T08:43:10.185Z,2.50
2023-04-13T08:48:15.192Z,2.55
2023-04-13T08:53:21.377Z,1.33
2023-04-13T08:58:27.806Z,2.00
2023-04-13T09:03:36.125Z,2.30
2023-04-13T09:08:44.818Z,2.50
2023-04-13T09:13:50.340Z,2.03
2023-04-13T09:18:55.540Z,1.10
2023-04-13T09:24:00.701Z,1.05
2023-04-13T09:29:05.310Z,0.60
2023-04-13T09:34:09.002Z,0.90
2023-04-13T09:39:14.477Z,0.98
2023-04-13T09:44:20.377Z,1.15
2023-04-13T09:49:24.147Z,0.55
2023-04-13T09:54:28.816Z,1.10
2023-04-13T09:59:33.303Z,0.80
2023-04-13T10:04:36.834Z,0.90
2023-04-13T10:09:42.077Z,0.60
2023-04-13T10:14:48.739Z,1.02
2023-04-13T10:19:54.316Z,1.00
2023-04-13T10:24:58.811Z,1.25
2023-04-13T10:30:04.053Z,0.80
2023-04-13T10:35:11.086Z,1.10
2023-04-13T10:40:16.324Z,1.08
2023-04-13T10:45:21.325Z,1.35
2023-04-13T10:50:27.466Z,1.90
2023-04-13T10:55:32.274Z,2.25
2023-04-13T11:00:44.726Z,1.40
2023-04-13T11:05:58.559Z,2.00
2023-04-13T11:16:06.607Z,1.67
2023-04-13T11:21:15.543Z,1.73
2023-04-13T11:26:19.776Z,1.42
2023-04-13T11:31:22.548Z,1.50
2023-04-13T11:36:26.528Z,2.05
2023-04-13T11:41:32.858Z,1.60
2023-04-13T11:46:35.785Z,2.13
2023-04-13T11:51:38.955Z,1.80
2023-04-13T11:56:43.217Z,2.00
2023-04-13T12:01:53.194Z,1.17
2023-04-13T12:07:11.562Z,1.67
2023-04-13T12:17:39.076Z,2.30
2023-04-13T12:27:54.694Z,1.90
2023-04-13T12:32:57.660Z,2.03
2023-04-13T12:38:00.498Z,2.10
2023-04-13T12:43:04.618Z,2.40
2023-04-13T12:48:09.117Z,2.42
2023-04-13T12:53:12.063Z,1.98
2023-04-13T12:58:16.526Z,2.35
2023-04-13T13:03:19.384Z,2.30
2023-04-13T13:08:22.323Z,2.72
2023-04-13T13:13:26.614Z,4.55
2023-04-13T13:18:39.062Z,4.07
2023-04-13T13:23:49.735Z,4.30
2023-04-13T13:28:53.898Z,4.75
2023-04-13T13:33:56.745Z,3.20
2023-04-13T13:39:00.534Z,3.10
2023-04-13T13:44:04.853Z,3.03
2023-04-13T13:49:07.631Z,2.20
2023-04-13T13:54:30.783Z,2.60
2023-04-13T13:59:34.981Z,2.40
2023-04-13T14:04:38.024Z,2.53
2023-04-13T14:09:40.890Z,2.97
2023-04-13T14:14:45.197Z,2.35
2023-04-13T14:19:47.970Z,2.55
2023-04-13T14:24:51.905Z,2.15
2023-04-13T14:29:56.293Z,2.50
2023-04-13T14:35:00.685Z,2.05
2023-04-13T14:40:08.777Z,3.45
2023-04-13T14:45:13.455Z,2.88
2023-04-13T14:50:16.477Z,2.10
2023-04-13T14:55:19.761Z,2.65
2023-04-13T15:00:38.456Z,2.42
2023-04-13T15:05:42.099Z,2.70
2023-04-13T15:10:44.892Z,3.00
2023-04-13T15:15:49.985Z,2.83
2023-04-13T15:20:52.743Z,2.80
2023-04-13T15:25:55.851Z,3.33
2023-04-13T15:31:00.138Z,2.70
2023-04-13T15:36:03.321Z,2.30
2023-04-13T15:41:09.694Z,2.03
2023-04-13T15:46:13.911Z,2.22
2023-04-13T15:51:16.820Z,2.80
2023-04-13T15:56:19.578Z,2.63
2023-04-13T16:01:23.850Z,2.58
2023-04-13T16:06:27.496Z,1.98
2023-04-13T16:11:31.787Z,2.47
2023-04-13T16:16:44.239Z,2.17
2023-04-13T16:21:50.833Z,2.05
2023-04-13T16:26:53.663Z,2.50
2023-04-13T16:31:58.004Z,2.95
2023-04-13T16:37:00.843Z,2.10
2023-04-13T16:42:04.271Z,2.03
2023-04-13T16:47:08.507Z,3.05
2023-04-13T16:52:11.345Z,2.35
2023-04-13T16:57:14.143Z,2.30
2023-04-13T17:02:30.256Z,2.55
2023-04-13T17:07:34.146Z,2.70
2023-04-13T17:12:37.387Z,2.65
2023-04-13T17:17:41.854Z,2.50
2023-04-13T17:22:45.276Z,3.22
2023-04-13T17:27:48.098Z,3.15
2023-04-13T17:32:52.582Z,3.05
2023-04-13T17:37:55.479Z,3.00
2023-04-13T17:42:58.284Z,3.13
2023-04-13T17:48:02.658Z,3.22
2023-04-13T17:53:05.551Z,3.05
2023-04-13T17:58:10.615Z,3.20
2023-04-13T18:03:14.978Z,2.92
2023-04-13T18:08:17.905Z,3.05
2023-04-13T18:13:20.897Z,3.30
2023-04-13T18:18:25.138Z,3.00
2023-04-13T18:23:27.923Z,3.15
2023-04-13T18:28:30.907Z,3.08
2023-04-13T18:47:09.085Z,3.45
2023-04-13T18:52:11.782Z,4.28
2023-04-13T19:02:18.596Z,3.97
2023-04-13T19:07:21.356Z,4.80
2023-04-13T19:17:28.209Z,4.03
2023-04-13T19:22:31.295Z,4.30
2023-04-13T19:27:34.114Z,4.20
2023-04-13T19:32:38.711Z,5.40
2023-04-13T19:37:41.997Z,4.93
2023-04-13T19:42:47.008Z,4.68
2023-04-13T19:47:51.853Z,4.47
2023-04-13T19:52:54.868Z,4.57
2023-04-13T19:57:57.692Z,5.13
2023-04-13T20:03:04.131Z,5.93
2023-04-13T20:08:07.280Z,5.88
2023-04-13T20:13:10.315Z,4.85
2023-04-13T20:18:14.679Z,6.20
2023-04-13T20:23:17.538Z,6.57
2023-04-13T20:28:21.475Z,6.22
2023-04-13T20:33:25.705Z,5.75
2023-04-13T20:38:29.959Z,6.80
2023-04-13T20:43:33.266Z,8.50
2023-04-13T20:53:45.055Z,8.48
2023-04-13T20:58:48.399Z,7.57
2023-04-13T21:03:53.452Z,8.65
2023-04-13T21:08:57.364Z,7.60
2023-04-13T21:14:00.482Z,8.38
2023-04-13T21:19:04.852Z,8.48
2023-04-13T21:24:08.193Z,9.23
2023-04-13T21:29:11.019Z,8.70
2023-04-13T21:34:15.421Z,9.05
2023-04-13T21:39:18.236Z,9.90
2023-04-13T21:44:28.813Z,10.75
2023-04-13T21:49:33.744Z,10.43
2023-04-13T21:54:36.590Z,9.82
2023-04-13T21:59:39.441Z,9.00
2023-04-13T22:04:43.561Z,11.60
2023-04-13T22:09:46.328Z,11.52
2023-04-13T22:14:49.199Z,9.82
2023-04-13T22:19:53.404Z,10.73
2023-04-13T22:24:56.149Z,9.15
2023-04-13T22:29:59.033Z,8.13
2023-04-13T22:35:03.272Z,8.77
2023-04-13T22:40:07.261Z,9.70
2023-04-13T22:45:11.024Z,8.27
2023-04-13T22:50:15.186Z,8.57
2023-04-13T22:55:18.095Z,8.05
2023-04-13T23:00:21.595Z,8.32
2023-04-13T23:05:25.826Z,8.98
2023-04-13T23:10:30.407Z,8.82
2023-04-13T23:15:33.275Z,9.50
2023-04-13T23:20:37.428Z,8.52
2023-04-13T23:25:40.468Z,8.98
2023-04-13T23:30:43.491Z,9.50
2023-04-13T23:35:53.756Z,9.45
2023-04-13T23:40:57.032Z,8.95
2023-04-13T23:46:00.002Z,8.75
2023-04-13T23:51:04.340Z,8.85
2023-04-13T23:56:07.625Z,8.48
